createdAt,value
2023-04-01T00:00:49.924Z,10.00
2023-04-01T00:03:24.906Z,10.00
2023-04-01T00:05:59.854Z,10.00
2023-04-01T00:08:34.702Z,10.00
2023-04-01T00:11:09.096Z,10.00
2023-04-01T00:13:44.071Z,10.00
2023-04-01T00:16:22.271Z,10.00
2023-04-01T00:18:57.201Z,10.00
2023-04-01T00:21:32.009Z,10.00
2023-04-01T00:24:06.978Z,9.92
2023-04-01T00:26:43.334Z,9.92
2023-04-01T00:29:17.799Z,9.90
2023-04-01T00:31:52.143Z,9.90
2023-04-01T00:34:26.762Z,9.90
2023-04-01T00:37:01.547Z,9.90
2023-04-01T00:39:37.218Z,9.90
2023-04-01T00:42:13.370Z,9.94
2023-04-01T00:44:50.290Z,9.90
2023-04-01T00:47:26.912Z,9.90
2023-04-01T00:50:01.766Z,9.82
2023-04-01T00:52:36.014Z,9.80
2023-04-01T00:55:15.155Z,9.80
2023-04-01T00:57:51.214Z,9.80
2023-04-01T01:00:27.402Z,9.80
2023-04-01T01:03:01.631Z,9.90
2023-04-01T01:06:00.311Z,9.90
2023-04-01T01:08:54.139Z,10.00
2023-04-01T01:11:43.624Z,10.04
2023-04-01T01:14:36.961Z,10.10
2023-04-01T01:17:21.539Z,10.10
2023-04-01T01:20:29.461Z,10.10
2023-04-01T01:23:39.365Z,10.10
2023-04-01T01:26:40.533Z,10.10
2023-04-01T01:30:01.272Z,10.10
2023-04-01T01:33:20.485Z,10.10
2023-04-01T01:35:57.117Z,10.00
2023-04-01T01:38:37.387Z,10.00
2023-04-01T01:41:14.587Z,10.00
2023-04-01T01:43:54.563Z,10.00
2023-04-01T01:46:33.027Z,10.00
2023-04-01T01:49:12.738Z,10.00
2023-04-01T01:51:46.907Z,10.00
2023-04-01T01:54:22.433Z,10.00
2023-04-01T01:57:09.696Z,10.00
2023-04-01T01:59:50.578Z,10.00
2023-04-01T02:02:33.453Z,9.96
2023-04-01T02:05:12.038Z,9.96
2023-04-01T02:07:55.072Z,9.94
2023-04-01T02:10:34.177Z,10.00
2023-04-01T02:13:18.759Z,10.00
2023-04-01T02:15:56.578Z,10.00
2023-04-01T02:18:32.180Z,10.00
2023-04-01T02:21:08.331Z,10.00
2023-04-01T02:23:43.213Z,10.00
2023-04-01T02:26:18.456Z,10.00
2023-04-01T02:28:55.993Z,10.00
2023-04-01T02:31:31.341Z,10.00
2023-04-01T02:34:06.777Z,10.00
2023-04-01T02:36:42.519Z,10.00
2023-04-01T02:39:17.488Z,10.00
2023-04-01T02:41:51.906Z,10.00
2023-04-01T02:44:25.981Z,10.00
2023-04-01T02:47:00.058Z,10.00
2023-04-01T02:49:34.180Z,10.00
2023-04-01T02:52:08.582Z,10.00
2023-04-01T02:54:42.749Z,10.00
2023-04-01T02:57:17.000Z,10.00
2023-04-01T02:59:51.272Z,10.00
2023-04-01T03:02:25.338Z,10.00
2023-04-01T03:04:59.597Z,10.00
2023-04-01T03:07:34.233Z,10.00
2023-04-01T03:10:10.476Z,10.00
2023-04-01T03:12:44.896Z,10.00
2023-04-01T03:15:19.461Z,10.04
2023-04-01T03:17:53.598Z,10.10
2023-04-01T03:20:27.880Z,10.10
2023-04-01T03:23:01.910Z,10.10
2023-04-01T03:25:37.461Z,10.10
2023-04-01T03:28:11.820Z,10.10
2023-04-01T03:30:46.376Z,10.10
2023-04-01T03:33:20.544Z,10.10
2023-04-01T03:35:55.801Z,10.10
2023-04-01T03:38:29.915Z,10.16
2023-04-01T03:41:04.391Z,10.20
2023-04-01T03:43:39.251Z,10.20
2023-04-01T03:46:13.656Z,10.20
2023-04-01T03:48:47.848Z,10.20
2023-04-01T03:51:22.082Z,10.20
2023-04-01T03:53:56.216Z,10.20
2023-04-01T03:56:30.246Z,10.20
2023-04-01T03:59:09.143Z,10.20
2023-04-01T04:01:43.451Z,10.20
2023-04-01T04:04:18.934Z,10.16
2023-04-01T04:06:53.546Z,10.20
2023-04-01T04:09:28.784Z,10.18
2023-04-01T04:12:03.362Z,10.14
2023-04-01T04:14:37.500Z,10.10
2023-04-01T04:17:17.291Z,10.10
2023-04-01T04:19:51.647Z,10.10
2023-04-01T04:22:26.320Z,10.10
2023-04-01T04:25:00.390Z,10.10
2023-04-01T04:27:35.052Z,10.10
2023-04-01T04:30:15.972Z,10.04
2023-04-01T04:32:50.084Z,10.00
2023-04-01T04:35:24.153Z,10.00
2023-04-01T04:37:58.391Z,10.00
2023-04-01T04:40:32.921Z,10.00
2023-04-01T04:43:07.378Z,10.00
2023-04-01T04:45:41.712Z,9.92
2023-04-01T04:48:21.355Z,9.90
2023-04-01T04:50:56.418Z,9.90
2023-04-01T04:53:31.416Z,9.90
2023-04-01T04:56:05.588Z,9.90
2023-04-01T04:58:50.884Z,9.92
2023-04-01T05:01:28.396Z,9.96
2023-04-01T05:04:02.655Z,10.00
2023-04-01T05:06:36.865Z,10.00
2023-04-01T05:09:11.764Z,10.00
2023-04-01T05:11:45.941Z,10.00
2023-04-01T05:14:21.231Z,10.00
2023-04-01T05:17:02.427Z,10.04
2023-04-01T05:19:36.885Z,10.10
2023-04-01T05:22:11.632Z,10.10
2023-04-01T05:24:46.024Z,10.10
2023-04-01T05:27:20.311Z,10.10
2023-04-01T05:29:54.783Z,10.10
2023-04-01T05:32:47.955Z,10.10
2023-04-01T05:35:23.595Z,10.20
2023-04-01T05:37:57.713Z,10.20
2023-04-01T05:40:32.275Z,10.20
2023-04-01T05:43:06.443Z,10.20
2023-04-01T05:45:41.490Z,10.20
2023-04-01T05:48:18.389Z,10.20
2023-04-01T05:50:52.559Z,10.20
2023-04-01T05:53:26.684Z,10.20
2023-04-01T05:56:04.040Z,10.22
2023-04-01T05:58:39.373Z,10.28
2023-04-01T06:01:16.664Z,10.30
2023-04-01T06:03:51.567Z,10.30
2023-04-01T06:06:30.806Z,10.40
2023-04-01T06:09:18.601Z,10.40
2023-04-01T06:12:33.111Z,10.40
2023-04-01T06:15:25.355Z,10.40
2023-04-01T06:18:21.857Z,10.40
2023-04-01T06:21:07.351Z,10.42
2023-04-01T06:24:01.123Z,10.50
2023-04-01T06:26:48.626Z,10.50
2023-04-01T06:29:57.456Z,10.50
2023-04-01T06:32:57.625Z,10.50
2023-04-01T06:36:08.452Z,10.60
2023-04-01T06:39:08.915Z,10.60
2023-04-01T06:42:08.630Z,10.60
2023-04-01T06:44:57.446Z,10.60
2023-04-01T06:48:18.465Z,10.60
2023-04-01T06:51:29.594Z,10.60
2023-04-01T06:54:29.670Z,10.60
2023-04-01T06:57:32.224Z,10.60
2023-04-01T07:00:14.824Z,10.60
2023-04-01T07:02:59.253Z,10.62
2023-04-01T07:05:41.763Z,10.66
2023-04-01T07:08:23.315Z,10.70
2023-04-01T07:11:03.072Z,10.70
2023-04-01T07:14:01.289Z,10.80
2023-04-01T07:16:41.659Z,10.80
2023-04-01T07:19:28.308Z,10.90
2023-04-01T07:22:36.359Z,11.00
2023-04-01T07:25:47.929Z,11.00
2023-04-01T07:28:37.879Z,11.00
2023-04-01T07:32:14.077Z,11.08
2023-04-01T07:35:03.573Z,11.02
2023-04-01T07:37:48.596Z,11.10
2023-04-01T07:40:35.540Z,11.10
2023-04-01T07:43:31.457Z,11.10
2023-04-01T07:46:35.082Z,11.10
2023-04-01T07:49:17.920Z,11.10
2023-04-01T07:52:02.368Z,11.10
2023-04-01T07:54:51.017Z,11.20
2023-04-01T07:57:37.609Z,11.30
2023-04-01T08:00:21.133Z,11.30
2023-04-01T08:03:35.985Z,11.40
2023-04-01T08:06:20.781Z,11.42
2023-04-01T08:09:12.785Z,11.50
2023-04-01T08:12:24.333Z,11.50
2023-04-01T08:15:28.601Z,11.50
2023-04-01T08:18:36.895Z,11.50
2023-04-01T08:21:18.219Z,11.48
2023-04-01T08:23:58.817Z,11.46
2023-04-01T08:26:42.299Z,11.40
2023-04-01T08:29:23.835Z,11.40
2023-04-01T08:32:07.079Z,11.40
2023-04-01T08:34:46.438Z,11.48
2023-04-01T08:37:34.301Z,11.50
2023-04-01T08:40:52.881Z,11.52
2023-04-01T08:44:13.176Z,11.60
2023-04-01T08:47:37.509Z,11.70
2023-04-01T08:50:56.977Z,11.72
2023-04-01T08:54:21.500Z,11.80
2023-04-01T08:57:11.007Z,11.90
2023-04-01T09:00:24.428Z,11.90
2023-04-01T09:03:54.386Z,12.00
2023-04-01T09:06:40.667Z,12.00
2023-04-01T09:10:00.367Z,12.10
2023-04-01T09:13:02.280Z,12.10
2023-04-01T09:16:04.904Z,12.10
2023-04-01T09:19:17.642Z,12.00
2023-04-01T09:22:23.531Z,11.92
2023-04-01T09:25:33.562Z,11.90
2023-04-01T09:28:21.144Z,11.90
2023-04-01T09:31:28.174Z,11.90
2023-04-01T09:34:59.585Z,11.80
2023-04-01T09:38:07.257Z,11.80
2023-04-01T09:40:56.356Z,11.70
2023-04-01T09:44:11.076Z,11.70
2023-04-01T09:47:19.386Z,11.70
2023-04-01T09:50:17.027Z,11.60
2023-04-01T09:53:03.253Z,11.60
2023-04-01T09:56:36.083Z,11.60
2023-04-01T09:59:50.343Z,11.70
2023-04-01T10:03:16.173Z,11.70
2023-04-01T10:06:52.321Z,11.84
2023-04-01T10:10:21.585Z,11.90
2023-04-01T10:13:50.476Z,11.90
2023-04-01T10:17:24.891Z,11.90
2023-04-01T10:20:49.613Z,11.90
2023-04-01T10:24:05.970Z,11.90
2023-04-01T10:27:28.749Z,11.90
2023-04-01T10:31:03.549Z,11.96
2023-04-01T10:34:50.611Z,12.00
2023-04-01T10:38:12.719Z,11.90
2023-04-01T10:41:29.535Z,11.90
2023-04-01T10:45:04.734Z,11.96
2023-04-01T10:48:45.245Z,12.00
2023-04-01T10:52:01.276Z,12.10
2023-04-01T10:55:19.806Z,12.20
2023-04-01T10:58:57.700Z,12.20
2023-04-01T11:02:25.824Z,12.30
2023-04-01T11:06:14.379Z,12.50
2023-04-01T11:10:02.118Z,12.60
2023-04-01T11:13:28.868Z,12.76
2023-04-01T11:17:04.949Z,12.90
2023-04-01T11:20:11.348Z,13.00
2023-04-01T11:23:10.162Z,13.04
2023-04-01T11:26:11.841Z,13.10
2023-04-01T11:29:58.716Z,13.10
2023-04-01T11:32:49.776Z,13.10
2023-04-01T11:35:51.664Z,13.20
2023-04-01T11:38:50.816Z,13.22
2023-04-01T11:41:52.115Z,13.30
2023-04-01T11:45:18.077Z,13.30
2023-04-01T11:48:09.921Z,13.20
2023-04-01T11:51:19.417Z,13.10
2023-04-01T11:54:08.175Z,13.00
2023-04-01T11:57:02.640Z,12.90
2023-04-01T12:00:07.427Z,12.80
2023-04-01T12:03:14.240Z,12.80
2023-04-01T12:06:00.972Z,12.80
2023-04-01T12:08:54.644Z,12.90
2023-04-01T12:11:41.684Z,12.90
2023-04-01T12:14:24.840Z,13.00
2023-04-01T12:17:15.879Z,13.10
2023-04-01T12:20:00.789Z,13.10
2023-04-01T12:22:54.570Z,13.28
2023-04-01T12:25:52.686Z,13.42
2023-04-01T12:28:43.633Z,13.66
2023-04-01T12:31:30.182Z,14.00
2023-04-01T12:34:45.501Z,14.24
2023-04-01T12:37:28.869Z,14.40
2023-04-01T12:40:30.292Z,14.52
2023-04-01T12:43:30.524Z,14.76
2023-04-01T12:46:20.966Z,15.00
2023-04-01T12:49:38.368Z,15.20
2023-04-01T12:52:22.695Z,15.50
2023-04-01T12:55:43.786Z,15.60
2023-04-01T12:59:01.103Z,15.80
2023-04-01T13:02:02.960Z,15.90
2023-04-01T13:05:36.287Z,15.80
2023-04-01T13:08:35.854Z,15.70
2023-04-01T13:11:22.940Z,15.60
2023-04-01T13:14:41.390Z,15.30
2023-04-01T13:17:24.672Z,15.10
2023-04-01T13:20:08.446Z,15.10
2023-04-01T13:23:03.435Z,15.02
2023-04-01T13:25:51.094Z,14.98
2023-04-01T13:28:32.932Z,15.00
2023-04-01T13:31:20.337Z,15.00
2023-04-01T13:34:15.851Z,15.00
2023-04-01T13:37:07.316Z,15.10
2023-04-01T13:39:59.754Z,15.10
2023-04-01T13:42:42.136Z,15.08
2023-04-01T13:45:22.079Z,15.00
2023-04-01T13:48:32.341Z,14.90
2023-04-01T13:51:49.011Z,14.80
2023-04-01T13:55:01.073Z,14.70
2023-04-01T13:57:58.842Z,14.42
2023-04-01T14:00:48.772Z,14.06
2023-04-01T14:03:40.322Z,13.80
2023-04-01T14:06:30.169Z,13.60
2023-04-01T14:09:29.243Z,13.50
2023-04-01T14:12:16.717Z,13.20
2023-04-01T14:15:22.573Z,13.04
2023-04-01T14:18:14.109Z,12.94
2023-04-01T14:21:02.566Z,12.90
2023-04-01T14:23:57.947Z,12.98
2023-04-01T14:27:12.968Z,13.00
2023-04-01T14:30:03.626Z,13.00
2023-04-01T14:32:51.579Z,13.00
2023-04-01T14:35:41.045Z,13.10
2023-04-01T14:38:48.625Z,13.14
2023-04-01T14:41:42.750Z,13.22
2023-04-01T14:44:48.483Z,13.20
2023-04-01T14:47:48.750Z,13.00
2023-04-01T14:50:26.243Z,12.80
2023-04-01T14:53:30.548Z,12.70
2023-04-01T14:56:06.025Z,12.60
2023-04-01T14:58:51.735Z,12.50
2023-04-01T15:01:48.804Z,12.40
2023-04-01T15:04:57.062Z,12.32
2023-04-01T15:08:03.115Z,12.30
2023-04-01T15:11:06.998Z,12.30
2023-04-01T15:14:08.577Z,12.40
2023-04-01T15:16:57.426Z,12.30
2023-04-01T15:19:48.486Z,12.20
2023-04-01T15:22:51.751Z,12.06
2023-04-01T15:25:45.477Z,11.90
2023-04-01T15:28:34.262Z,11.80
2023-04-01T15:31:16.755Z,11.80
2023-04-01T15:34:17.592Z,11.80
2023-04-01T15:37:02.659Z,11.80
2023-04-01T15:39:53.796Z,11.80
2023-04-01T15:42:52.236Z,11.80
2023-04-01T15:45:44.325Z,11.90
2023-04-01T15:48:41.264Z,12.00
2023-04-01T15:51:32.654Z,12.10
2023-04-01T15:54:30.455Z,12.20
2023-04-01T15:57:28.033Z,12.40
2023-04-01T16:00:28.292Z,12.52
2023-04-01T16:03:23.722Z,12.70
2023-04-01T16:06:26.390Z,12.70
2023-04-01T16:09:21.560Z,12.70
2023-04-01T16:12:05.673Z,12.70
2023-04-01T16:14:55.410Z,12.70
2023-04-01T16:17:52.316Z,12.70
2023-04-01T16:20:42.526Z,12.60
2023-04-01T16:23:28.903Z,12.50
2023-04-01T16:26:14.237Z,12.50
2023-04-01T16:29:06.051Z,12.40
2023-04-01T16:31:50.941Z,12.38
2023-04-01T16:34:32.868Z,12.20
2023-04-01T16:37:15.081Z,12.10
2023-04-01T16:40:06.277Z,12.10
2023-04-01T16:42:52.618Z,12.00
2023-04-01T16:45:39.119Z,12.00
2023-04-01T16:48:20.002Z,11.98
2023-04-01T16:51:05.387Z,11.90
2023-04-01T16:53:49.722Z,11.80
2023-04-01T16:56:31.240Z,11.78
2023-04-01T16:59:16.807Z,11.70
2023-04-01T17:01:59.707Z,11.70
2023-04-01T17:04:44.636Z,11.70
2023-04-01T17:07:31.532Z,11.70
2023-04-01T17:10:39.979Z,11.70
2023-04-01T17:13:47.582Z,11.70
2023-04-01T17:16:52.611Z,11.60
2023-04-01T17:19:47.531Z,11.60
2023-04-01T17:22:34.807Z,11.50
2023-04-01T17:25:42.826Z,11.40
2023-04-01T17:28:37.296Z,11.30
2023-04-01T17:31:26.269Z,11.30
2023-04-01T17:34:20.798Z,11.20
2023-04-01T17:37:18.632Z,11.12
2023-04-01T17:40:11.943Z,11.10
2023-04-01T17:42:55.253Z,11.10
2023-04-01T17:45:41.013Z,11.00
2023-04-01T17:48:35.504Z,10.98
2023-04-01T17:51:32.303Z,10.90
2023-04-01T17:54:25.282Z,10.90
2023-04-01T17:57:32.430Z,10.86
2023-04-01T18:00:22.946Z,10.80
2023-04-01T18:03:16.837Z,10.80
2023-04-01T18:06:06.203Z,10.76
2023-04-01T18:09:00.342Z,10.70
2023-04-01T18:11:53.870Z,10.70
2023-04-01T18:14:57.579Z,10.70
2023-04-01T18:17:45.009Z,10.60
2023-04-01T18:20:39.178Z,10.60
2023-04-01T18:23:32.188Z,10.50
2023-04-01T18:26:17.205Z,10.50
2023-04-01T18:29:03.209Z,10.50
2023-04-01T18:31:49.266Z,10.50
2023-04-01T18:34:51.159Z,10.50
2023-04-01T18:37:34.183Z,10.48
2023-04-01T18:40:26.171Z,10.42
2023-04-01T18:43:15.186Z,10.40
2023-04-01T18:45:58.306Z,10.40
2023-04-01T18:48:55.176Z,10.40
2023-04-01T18:51:48.171Z,10.40
2023-04-01T18:54:34.284Z,10.40
2023-04-01T18:57:18.247Z,10.40
2023-04-01T19:00:06.193Z,10.40
2023-04-01T19:02:48.324Z,10.40
2023-04-01T19:05:34.176Z,10.34
2023-04-01T19:08:32.134Z,10.30
2023-04-01T19:11:24.179Z,10.40
2023-04-01T19:14:16.182Z,10.40
2023-04-01T19:17:07.205Z,10.40
2023-04-01T19:28:03.553Z,10.40
2023-04-01T19:30:58.491Z,10.36
2023-04-01T19:34:01.605Z,10.30
2023-04-01T19:36:48.759Z,10.30
2023-04-01T19:39:41.132Z,10.30
2023-04-01T19:42:29.988Z,10.30
2023-04-01T19:45:22.784Z,10.30
2023-04-01T19:48:16.898Z,10.30
2023-04-01T19:51:00.221Z,10.30
2023-04-01T19:53:44.432Z,10.30
2023-04-01T19:56:23.719Z,10.30
2023-04-01T19:59:05.020Z,10.30
2023-04-01T20:01:48.430Z,10.30
2023-04-01T20:04:32.804Z,10.30
2023-04-01T20:07:16.119Z,10.20
2023-04-01T20:10:07.258Z,10.20
2023-04-01T20:12:57.510Z,10.20
2023-04-01T20:15:42.400Z,10.20
2023-04-01T20:18:26.186Z,10.20
2023-04-01T20:21:07.687Z,10.10
2023-04-01T20:23:48.506Z,10.10
2023-04-01T20:26:28.601Z,10.10
2023-04-01T20:29:37.639Z,10.10
2023-04-01T20:32:32.675Z,10.10
2023-04-01T20:35:38.789Z,10.00
2023-04-01T20:38:42.861Z,10.00
2023-04-01T20:41:27.713Z,9.90
2023-04-01T20:44:15.472Z,9.90
2023-04-01T20:47:06.382Z,9.90
2023-04-01T20:49:55.610Z,9.90
2023-04-01T20:52:44.880Z,9.90
2023-04-01T20:55:42.190Z,9.80
2023-04-01T20:58:31.282Z,9.80
2023-04-01T21:01:23.248Z,9.74
2023-04-01T21:04:20.994Z,9.70
2023-04-01T21:07:26.604Z,9.70
2023-04-01T21:10:26.682Z,9.70
2023-04-01T21:13:18.172Z,9.60
2023-04-01T21:16:12.809Z,9.60
2023-04-01T21:19:07.342Z,9.52
2023-04-01T21:22:17.998Z,9.50
2023-04-01T21:25:42.402Z,9.50
2023-04-01T21:28:37.303Z,9.50
2023-04-01T21:31:34.097Z,9.40
2023-04-01T21:34:44.896Z,9.40
2023-04-01T21:37:49.313Z,9.40
2023-04-01T21:40:57.672Z,9.40
2023-04-01T21:44:08.399Z,9.38
2023-04-01T21:47:27.512Z,9.30
2023-04-01T21:50:30.397Z,9.30
2023-04-01T21:53:46.660Z,9.30
2023-04-01T21:57:26.305Z,9.30
2023-04-01T22:00:26.292Z,9.30
2023-04-01T22:04:05.907Z,9.30
2023-04-01T22:06:46.915Z,9.30
2023-04-01T22:09:30.134Z,9.20
2023-04-01T22:12:16.157Z,9.20
2023-04-01T22:15:00.365Z,9.20
2023-04-01T22:17:41.706Z,9.20
2023-04-01T22:20:30.406Z,9.20
2023-04-01T22:23:23.159Z,9.20
2023-04-01T22:26:06.695Z,9.20
2023-04-01T22:28:49.908Z,9.20
2023-04-01T22:31:31.523Z,9.20
2023-04-01T22:34:19.346Z,9.20
2023-04-01T22:37:05.362Z,9.16
2023-04-01T22:40:12.549Z,9.10
2023-04-01T22:42:56.344Z,9.10
2023-04-01T22:46:00.936Z,9.10
2023-04-01T22:48:43.832Z,9.00
2023-04-01T22:51:24.714Z,9.00
2023-04-01T22:54:10.511Z,9.00
2023-04-01T22:56:51.672Z,9.00
2023-04-01T22:59:39.772Z,8.90
2023-04-01T23:02:22.762Z,8.90
2023-04-01T23:05:02.709Z,8.90
2023-04-01T23:07:54.080Z,8.90
2023-04-01T23:10:42.303Z,8.80
2023-04-01T23:13:24.735Z,8.70
2023-04-01T23:16:00.660Z,8.60
2023-04-01T23:18:47.689Z,8.60
2023-04-01T23:21:32.198Z,8.50
2023-04-01T23:24:21.874Z,8.50
2023-04-01T23:27:02.510Z,8.48
2023-04-01T23:29:43.818Z,8.40
2023-04-01T23:32:27.143Z,8.40
2023-04-01T23:35:03.607Z,8.40
2023-04-01T23:37:38.603Z,8.30
2023-04-01T23:40:18.936Z,8.30
2023-04-01T23:42:53.014Z,8.20
2023-04-01T23:45:27.284Z,8.20
2023-04-01T23:48:01.475Z,8.16
2023-04-01T23:50:36.735Z,8.10
2023-04-01T23:53:23.166Z,8.10
2023-04-01T23:55:58.349Z,8.10
2023-04-01T23:58:53.411Z,8.08
